Time;durP1;ratioP1;P1;durP2;ratioP2;P2;SDS_P1;SDS_P2;PMS_P1;PMS_P2;Temp;Humidity;BMP_temperature;BMP_pressure;BME280_temperature;BME280_humidity;BME280_pressure;Samples;Min_cycle;Max_cycle;Signal;HPM_P1;HPM_P2
2022/10/03 00:00:21;;;;;;;19.83;13.97;;;;;;;9.33;100.00;100983.81;4973155;28;20287;-65
2022/10/03 00:03:11;;;;;;;24.57;14.93;;;;;;;9.19;100.00;100974.00;4991509;28;20224;-68
2022/10/03 00:05:52;;;;;;;22.33;15.53;;;;;;;9.09;100.00;100970.09;4991820;28;20199;-65
2022/10/03 00:08:35;;;;;;;17.57;15.37;;;;;;;9.10;100.00;100976.91;4991921;28;20263;-65
2022/10/03 00:11:28;;;;;;;23.20;15.37;;;;;;;9.17;100.00;100983.53;4977053;28;20230;-64
2022/10/03 00:14:01;;;;;;;19.63;15.00;;;;;;;9.26;100.00;100979.78;4982566;28;20187;-64
2022/10/03 00:16:48;;;;;;;23.07;16.13;;;;;;;9.21;100.00;100972.25;4991354;28;20210;-66
2022/10/03 00:19:25;;;;;;;30.10;16.37;;;;;;;9.15;100.00;100977.59;4982482;28;20190;-65
2022/10/03 00:22:02;;;;;;;20.83;16.37;;;;;;;9.25;100.00;100978.09;4995212;28;20226;-65
2022/10/03 00:24:38;;;;;;;21.80;16.07;;;;;;;9.24;100.00;100974.72;4983668;28;20254;-64
2022/10/03 00:27:25;;;;;;;24.60;15.83;;;;;;;9.16;100.00;100972.41;4991277;28;20183;-65
2022/10/03 00:30:15;;;;;;;26.93;16.83;;;;;;;9.13;100.00;100977.66;4989717;28;20242;-65
2022/10/03 00:33:06;;;;;;;20.17;16.07;;;;;;;9.07;100.00;100971.88;4982007;28;20211;-65
2022/10/03 00:35:48;;;;;;;21.27;17.03;;;;;;;9.03;100.00;100974.56;4991502;28;20222;-65
2022/10/03 00:38:58;;;;;;;22.63;16.67;;;;;;;8.94;100.00;100979.16;4991622;28;20238;-66
2022/10/03 00:41:47;;;;;;;23.13;16.40;;;;;;;8.95;100.00;100968.84;4978438;28;20226;-66
2022/10/03 00:44:31;;;;;;;22.67;16.67;;;;;;;8.97;100.00;100971.38;4990205;28;20202;-65
2022/10/03 00:47:23;;;;;;;23.47;17.43;;;;;;;8.90;100.00;100972.47;4989993;28;20255;-65
2022/10/03 00:50:13;;;;;;;22.90;15.83;;;;;;;8.71;100.00;100980.78;4989207;28;20227;-65
2022/10/03 00:52:59;;;;;;;28.10;15.97;;;;;;;8.70;100.00;100984.22;4981934;28;20250;-65
2022/10/03 00:55:50;;;;;;;29.30;16.83;;;;;;;8.64;100.00;100989.53;4991470;28;20322;-65
2022/10/03 00:58:35;;;;;;;23.77;15.63;;;;;;;8.72;100.00;100997.84;4991763;28;20665;-65
2022/10/03 01:01:21;;;;;;;22.17;16.20;;;;;;;8.63;100.00;100996.38;4985608;28;20665;-66
2022/10/03 01:04:29;;;;;;;25.43;16.80;;;;;;;8.66;100.00;100998.88;4978966;28;20195;-65
2022/10/03 01:07:07;;;;;;;28.67;17.37;;;;;;;8.65;100.00;100997.19;4984820;28;20219;-66
2022/10/03 01:09:35;;;;;;;30.43;17.67;;;;;;;8.63;100.00;100993.00;4988140;28;20277;-65
2022/10/03 01:12:31;;;;;;;27.93;17.47;;;;;;;8.50;100.00;101010.50;4964892;28;20231;-65
2022/10/03 01:15:25;;;;;;;22.30;16.57;;;;;;;8.45;100.00;101018.31;4986592;28;20227;-65
2022/10/03 01:18:04;;;;;;;27.87;17.13;;;;;;;8.37;100.00;101018.53;4991284;28;20285;-65
2022/10/03 01:21:04;;;;;;;26.23;18.17;;;;;;;8.39;100.00;101021.88;4984852;28;20293;-66
2022/10/03 01:23:38;;;;;;;27.53;16.97;;;;;;;8.44;100.00;101018.34;4986717;28;20199;-66
2022/10/03 01:26:37;;;;;;;25.90;17.53;;;;;;;8.38;100.00;101021.94;4990812;28;20305;-67
2022/10/03 01:32:06;;;;;;;28.07;18.50;;;;;;;8.41;100.00;101019.28;4981439;28;20328;-65
2022/10/03 01:35:06;;;;;;;27.73;18.23;;;;;;;8.52;100.00;101026.66;4987364;28;20253;-65
2022/10/03 01:37:42;;;;;;;31.90;18.23;;;;;;;8.66;100.00;101028.81;4992667;28;20191;-66
2022/10/03 01:40:28;;;;;;;34.97;17.83;;;;;;;8.61;100.00;101025.53;4979859;28;20274;-67
2022/10/03 01:43:12;;;;;;;22.47;17.70;;;;;;;8.63;100.00;101016.91;4974533;28;20261;-66
2022/10/03 01:45:46;;;;;;;29.77;17.60;;;;;;;8.68;100.00;101029.59;4991059;28;20292;-66
2022/10/03 01:48:51;;;;;;;27.03;17.87;;;;;;;8.59;100.00;101028.16;4990655;28;20272;-65
2022/10/03 01:51:44;;;;;;;31.30;18.27;;;;;;;8.58;100.00;101039.28;4993868;28;20368;-65
2022/10/03 01:54:48;;;;;;;27.97;19.20;;;;;;;8.61;100.00;101046.91;4991566;28;20562;-66
2022/10/03 01:57:34;;;;;;;29.87;17.47;;;;;;;8.68;100.00;101042.41;4916542;29;20194;-66
2022/10/03 02:00:19;;;;;;;36.10;19.97;;;;;;;8.70;100.00;101053.47;4914681;29;20287;-66
2022/10/03 02:02:48;;;;;;;30.33;19.63;;;;;;;8.68;100.00;101045.84;4906046;29;20226;-66
2022/10/03 02:05:34;;;;;;;34.40;19.87;;;;;;;8.65;100.00;101035.66;4912987;29;20218;-65
2022/10/03 02:08:16;;;;;;;29.20;19.77;;;;;;;8.68;100.00;101045.84;4929478;29;20197;-66
2022/10/03 02:10:48;;;;;;;35.10;20.40;;;;;;;8.70;100.00;101041.47;4903466;29;20233;-65
2022/10/03 02:13:21;;;;;;;38.47;19.77;;;;;;;8.76;100.00;101037.88;4910963;29;20221;-65
2022/10/03 02:16:09;;;;;;;37.37;19.77;;;;;;;8.78;100.00;101040.41;4928852;29;20551;-65
2022/10/03 02:18:57;;;;;;;32.90;19.60;;;;;;;8.75;100.00;101043.06;4929004;29;20213;-65
2022/10/03 02:21:44;;;;;;;42.43;19.03;;;;;;;8.68;100.00;101045.84;4914018;29;20811;-66
2022/10/03 02:24:26;;;;;;;32.13;18.60;;;;;;;8.58;100.00;101052.13;4931347;29;20598;-65
2022/10/03 02:27:06;;;;;;;32.80;18.13;;;;;;;8.63;100.00;101042.56;4927972;29;20208;-65
2022/10/03 02:29:55;;;;;;;36.03;20.73;;;;;;;8.65;100.00;101045.91;4930002;29;20201;-65
2022/10/03 02:32:33;;;;;;;32.07;18.20;;;;;;;8.55;100.00;101047.09;4942786;28;20226;-65
2022/10/03 02:35:06;;;;;;;41.20;17.57;;;;;;;8.56;100.00;101041.09;4994931;28;20207;-65
2022/10/03 02:37:56;;;;;;;28.33;18.00;;;;;;;8.53;100.00;101039.47;4984864;28;20194;-66
2022/10/03 02:40:30;;;;;;;32.50;17.27;;;;;;;8.49;100.00;101042.16;4985027;28;20187;-66
2022/10/03 02:43:17;;;;;;;42.40;18.93;;;;;;;8.33;100.00;101047.69;4982852;28;20285;-66
2022/10/03 02:46:28;;;;;;;34.87;18.13;;;;;;;8.17;100.00;101039.63;4994099;28;20195;-66
2022/10/03 02:48:59;;;;;;;26.63;16.60;;;;;;;8.02;100.00;101046.03;4917075;29;20189;-66
2022/10/03 02:51:53;;;;;;;29.10;17.67;;;;;;;7.90;100.00;101043.81;4924784;29;20297;-66
2022/10/03 02:54:35;;;;;;;29.27;17.00;;;;;;;7.74;100.00;101048.56;4901189;29;20201;-66
2022/10/03 02:57:38;;;;;;;26.40;16.13;;;;;;;7.77;100.00;101051.03;4928562;29;20334;-65
2022/10/03 03:00:05;;;;;;;26.63;16.60;;;;;;;7.86;100.00;101055.06;4911235;28;20192;-66
2022/10/03 03:02:49;;;;;;;27.60;16.73;;;;;;;7.65;100.00;101056.47;4916304;29;20210;-66
2022/10/03 03:05:33;;;;;;;30.83;17.30;;;;;;;7.68;100.00;101064.09;4927133;29;20188;-66
2022/10/03 03:08:17;;;;;;;18.73;14.47;;;;;;;7.81;100.00;101074.84;4929693;29;20190;-66
2022/10/03 03:11:11;;;;;;;23.43;15.20;;;;;;;7.71;100.00;101071.69;4909733;29;20320;-65
2022/10/03 03:14:18;;;;;;;23.87;14.30;;;;;;;7.71;100.00;101069.94;4931491;29;20209;-66
2022/10/03 03:17:22;;;;;;;22.77;15.57;;;;;;;7.68;100.00;101075.16;4918559;29;20720;-65
2022/10/03 03:19:47;;;;;;;32.43;16.70;;;;;;;7.56;100.00;101076.31;4966720;28;20302;-65
2022/10/03 03:22:31;;;;;;;26.97;15.00;;;;;;;7.53;100.00;101073.84;4983451;28;20638;-65
2022/10/03 03:25:28;;;;;;;32.17;16.73;;;;;;;7.49;100.00;101077.38;4993977;28;20192;-66
2022/10/03 03:28:13;;;;;;;32.27;17.07;;;;;;;7.49;100.00;101076.53;4994423;28;20202;-65
2022/10/03 03:30:56;;;;;;;25.80;16.90;;;;;;;7.47;100.00;101091.94;4963157;28;20337;-65
2022/10/03 03:33:52;;;;;;;28.50;15.80;;;;;;;7.43;100.00;101080.94;4990712;28;20205;-65
2022/10/03 03:36:23;;;;;;;26.40;16.57;;;;;;;7.47;100.00;101089.38;4993522;28;20266;-66
2022/10/03 03:39:07;;;;;;;22.73;15.97;;;;;;;7.48;100.00;101083.38;4993011;28;20201;-65
2022/10/03 03:41:59;;;;;;;22.10;16.13;;;;;;;7.55;100.00;101092.59;4976807;28;20248;-65
2022/10/03 03:44:45;;;;;;;25.93;15.80;;;;;;;7.71;100.00;101089.59;4989482;28;20198;-67
2022/10/03 03:47:54;;;;;;;27.97;16.60;;;;;;;7.80;100.00;101099.63;4992860;28;20678;-65
2022/10/03 03:50:38;;;;;;;29.37;15.73;;;;;;;8.04;100.00;101110.06;4980636;28;20182;-65
2022/10/03 03:53:22;;;;;;;34.53;18.70;;;;;;;8.04;100.00;101105.78;5002051;28;20282;-66
2022/10/03 03:56:03;;;;;;;35.50;18.50;;;;;;;8.13;100.00;101103.84;5003811;28;20210;-65
2022/10/03 03:58:51;;;;;;;33.27;18.33;;;;;;;8.33;100.00;101113.53;4985077;28;20195;-65
2022/10/03 04:01:40;;;;;;;31.50;18.97;;;;;;;8.33;100.00;101109.22;4990109;28;20321;-66
2022/10/03 04:04:18;;;;;;;29.77;18.93;;;;;;;8.44;100.00;101100.41;4990747;28;20199;-66
2022/10/03 04:07:02;;;;;;;31.10;18.50;;;;;;;8.43;100.00;101104.69;4993162;28;20187;-66
2022/10/03 04:09:43;;;;;;;38.67;18.57;;;;;;;8.31;100.00;101110.16;4993756;28;20194;-66
2022/10/03 04:12:36;;;;;;;29.33;18.33;;;;;;;8.23;100.00;101111.22;4971681;28;20329;-65
2022/10/03 04:15:10;;;;;;;28.30;17.53;;;;;;;8.23;100.00;101116.34;4991941;28;20646;-65
2022/10/03 04:21:18;;;;;;;31.10;18.57;;;;;;;8.00;100.00;101118.72;4985606;28;20275;-66
2022/10/03 04:23:44;;;;;;;36.17;18.63;;;;;;;8.05;100.00;101121.97;4997685;28;20270;-65
2022/10/03 04:26:18;;;;;;;26.00;18.40;;;;;;;8.07;100.00;101117.66;4991914;28;20608;-65
2022/10/03 04:28:58;;;;;;;35.07;18.83;;;;;;;8.14;100.00;101118.34;4991978;28;20175;-65
2022/10/03 04:31:32;;;;;;;32.10;18.60;;;;;;;8.22;100.00;101116.38;4984621;28;20612;-65
2022/10/03 04:34:03;;;;;;;46.30;21.50;;;;;;;8.24;100.00;101122.31;4989708;28;20194;-66
2022/10/03 04:36:50;;;;;;;36.50;21.37;;;;;;;8.28;100.00;101117.97;4991565;28;20223;-65
2022/10/03 04:39:36;;;;;;;42.37;21.97;;;;;;;8.26;100.00;101118.00;4990137;28;20246;-66
2022/10/03 04:42:27;;;;;;;39.13;21.93;;;;;;;8.40;100.00;101126.13;4966719;28;20621;-65
2022/10/03 04:44:55;;;;;;;42.30;21.57;;;;;;;8.61;100.00;101128.13;4978384;28;20193;-66
2022/10/03 04:47:47;;;;;;;35.00;22.37;;;;;;;8.59;100.00;101132.47;4990972;28;20269;-65
2022/10/03 04:50:19;;;;;;;35.70;21.27;;;;;;;8.78;100.00;101127.63;4976977;28;20523;-65
2022/10/03 04:52:59;;;;;;;34.73;20.27;;;;;;;8.83;100.00;101130.88;4963592;28;20211;-66
2022/10/03 04:55:49;;;;;;;33.03;19.37;;;;;;;8.85;100.00;101124.81;4989651;28;20306;-66
2022/10/03 04:58:23;;;;;;;32.27;20.27;;;;;;;8.98;100.00;101127.00;5002157;28;20198;-65
2022/10/03 05:01:14;;;;;;;29.67;19.73;;;;;;;9.06;100.00;101131.91;4982587;28;20231;-66
2022/10/03 05:03:53;;;;;;;28.17;19.27;;;;;;;8.98;100.00;101127.00;4977201;28;20279;-66
2022/10/03 05:07:01;;;;;;;25.10;18.67;;;;;;;9.06;100.00;101131.91;4983824;28;20233;-65
2022/10/03 05:09:46;;;;;;;28.90;18.30;;;;;;;9.14;100.00;101137.63;4993281;28;20587;-65
2022/10/03 05:12:19;;;;;;;32.30;18.07;;;;;;;9.16;100.00;101144.38;4979889;28;20257;-65
2022/10/03 05:15:06;;;;;;;26.77;17.43;;;;;;;9.20;100.00;101137.44;4977841;28;20238;-65
2022/10/03 05:17:50;;;;;;;33.60;18.87;;;;;;;9.12;100.00;101135.13;4991376;28;20220;-65
2022/10/03 05:20:57;;;;;;;25.20;19.07;;;;;;;8.96;100.00;101142.44;4980823;28;20183;-65
2022/10/03 05:23:25;;;;;;;29.33;18.37;;;;;;;8.86;100.00;101147.03;4964844;28;20202;-66
2022/10/03 05:26:18;;;;;;;23.60;18.60;;;;;;;8.90;100.00;101146.94;4991338;28;20172;-65
2022/10/03 05:28:58;;;;;;;32.13;18.43;;;;;;;8.83;100.00;101139.44;4982498;28;20728;-65
2022/10/03 05:31:43;;;;;;;26.13;17.87;;;;;;;9.06;100.00;101142.19;4966572;28;20253;-65
2022/10/03 05:34:53;;;;;;;55.60;17.27;;;;;;;9.08;100.00;101143.81;4998818;28;20709;-65
2022/10/03 05:37:47;;;;;;;32.50;19.03;;;;;;;8.80;100.00;101144.66;4994611;28;20278;-65
2022/10/03 05:40:25;;;;;;;30.10;18.30;;;;;;;8.95;100.00;101151.03;4985337;28;20186;-66
2022/10/03 05:42:54;;;;;;;24.73;16.77;;;;;;;9.07;100.00;101160.09;4979492;28;20218;-65
2022/10/03 05:45:47;;;;;;;24.80;17.27;;;;;;;9.02;100.00;101167.09;4996007;28;20175;-66
2022/10/03 05:48:25;;;;;;;27.30;18.67;;;;;;;9.30;100.00;101166.22;4993704;28;20202;-66
2022/10/03 05:51:02;;;;;;;26.27;17.60;;;;;;;9.31;100.00;101166.16;4982405;28;20238;-65
2022/10/03 05:53:41;;;;;;;27.33;17.13;;;;;;;9.47;100.00;101160.53;4983838;28;20207;-65
2022/10/03 05:56:44;;;;;;;29.27;18.23;;;;;;;9.47;100.00;101168.25;4998082;28;20179;-65
2022/10/03 05:59:50;;;;;;;22.87;16.77;;;;;;;9.26;100.00;101167.22;4994806;28;20191;-66
2022/10/03 06:02:49;;;;;;;21.57;16.87;;;;;;;9.31;100.00;101173.03;4980289;28;20231;-66
2022/10/03 06:05:21;;;;;;;27.93;17.77;;;;;;;9.44;100.00;101174.31;4982625;28;20673;-65
2022/10/03 06:08:16;;;;;;;23.70;17.23;;;;;;;9.56;100.00;101182.50;4994150;28;20200;-65
2022/10/03 06:10:45;;;;;;;27.00;18.63;;;;;;;9.63;100.00;101171.97;4980716;28;20318;-65
2022/10/03 06:13:18;;;;;;;24.97;17.17;;;;;;;9.55;100.00;101181.69;4986766;28;20212;-65
2022/10/03 06:16:02;;;;;;;31.47;19.10;;;;;;;9.72;100.00;101178.53;4995730;28;20203;-65
2022/10/03 06:18:40;;;;;;;26.23;18.73;;;;;;;9.82;100.00;101179.06;4995808;28;20238;-65
2022/10/03 06:21:36;;;;;;;25.50;16.27;;;;;;;9.87;100.00;101177.16;4979106;28;20231;-65
2022/10/03 06:24:50;;;;;;;27.40;17.43;;;;;;;9.68;100.00;101185.50;4990839;28;20266;-65
2022/10/03 06:27:53;;;;;;;22.53;16.93;;;;;;;9.74;100.00;101189.59;4993508;28;20184;-65
2022/10/03 06:30:36;;;;;;;27.27;16.97;;;;;;;9.95;100.00;101187.22;4984957;28;20187;-65
2022/10/03 06:33:39;;;;;;;24.90;16.30;;;;;;;10.12;100.00;101184.03;4993884;28;20198;-65
2022/10/03 06:36:22;;;;;;;22.73;15.60;;;;;;;10.27;100.00;101191.22;4991897;28;20295;-66
2022/10/03 06:39:09;;;;;;;27.80;15.77;;;;;;;10.53;100.00;101188.59;4989691;28;20179;-66
2022/10/03 06:42:05;;;;;;;25.77;15.10;;;;;;;10.56;100.00;101191.91;4984148;28;20231;-66
2022/10/03 06:44:54;;;;;;;21.40;13.93;;;;;;;10.76;100.00;101190.34;4992651;28;20222;-66
2022/10/03 06:47:40;;;;;;;22.73;13.87;;;;;;;10.90;100.00;101200.94;4995350;28;20241;-65
2022/10/03 06:50:28;;;;;;;21.00;12.03;;;;;;;10.90;100.00;101193.22;4980862;28;20188;-66
2022/10/03 06:53:07;;;;;;;19.17;11.53;;;;;;;11.07;100.00;101184.00;4978477;28;20246;-65
2022/10/03 06:56:03;;;;;;;21.07;12.60;;;;;;;11.30;100.00;101185.66;4994255;28;20213;-65
2022/10/03 06:58:47;;;;;;;21.13;10.90;;;;;;;11.27;100.00;101185.78;4982643;28;20643;-65
2022/10/03 07:01:36;;;;;;;18.87;10.57;;;;;;;11.38;100.00;101181.03;4972367;28;20228;-66
2022/10/03 07:04:10;;;;;;;21.20;10.10;;;;;;;11.65;100.00;101185.97;4980570;28;20187;-65
2022/10/03 07:07:07;;;;;;;17.00;10.50;;;;;;;11.69;100.00;101182.34;4995074;28;20170;-65
2022/10/03 07:09:45;;;;;;;17.27;9.67;;;;;;;11.80;100.00;101184.47;4992441;28;20183;-65
2022/10/03 07:12:51;;;;;;;15.87;9.97;;;;;;;11.97;100.00;101178.63;4973537;28;20255;-66
2022/10/03 07:15:40;;;;;;;18.17;9.40;;;;;;;11.95;100.00;101183.81;4981812;28;20565;-65
2022/10/03 07:18:43;;;;;;;13.60;8.00;;;;;;;12.29;100.00;101186.69;4986997;28;20195;-65
2022/10/03 07:21:22;;;;;;;11.27;8.37;;;;;;;12.59;100.00;101191.41;4983263;28;20219;-65
2022/10/03 07:24:42;;;;;;;13.23;7.83;;;;;;;12.63;100.00;101185.19;4993025;28;20194;-65
2022/10/03 07:27:37;;;;;;;13.83;7.87;;;;;;;12.61;100.00;101192.16;4991975;28;20175;-65
2022/10/03 07:30:22;;;;;;;13.20;7.70;;;;;;;12.65;100.00;101200.59;4990294;28;20616;-66
2022/10/03 07:33:06;;;;;;;13.73;7.27;;;;;;;12.70;100.00;101208.97;4934542;28;20230;-66
2022/10/03 07:41:52;;;;;;;14.57;6.17;;;;;;;12.55;100.00;101207.91;4984290;28;20312;-65
2022/10/03 07:44:45;;;;;;;11.70;5.40;;;;;;;12.58;100.00;101213.78;4986081;28;20242;-66
2022/10/03 07:47:48;;;;;;;11.90;5.87;;;;;;;12.51;100.00;101220.13;4989396;28;20285;-69
2022/10/03 07:50:41;;;;;;;11.80;5.47;;;;;;;12.71;100.00;101221.81;4980498;28;20183;-65
2022/10/03 07:53:17;;;;;;;13.73;6.30;;;;;;;12.81;100.00;101229.13;4981365;28;20211;-66
2022/10/03 07:55:49;;;;;;;10.70;4.87;;;;;;;13.10;100.00;101222.63;4985545;28;20175;-68
2022/10/03 07:58:38;;;;;;;15.63;4.93;;;;;;;13.33;100.00;101223.25;4980817;28;20187;-65
2022/10/03 08:01:41;;;;;;;10.27;5.53;;;;;;;13.44;100.00;101230.53;4969920;28;20748;-65
2022/10/03 08:04:21;;;;;;;11.80;5.40;;;;;;;13.52;100.00;101239.59;4983559;28;20183;-65
2022/10/03 08:07:12;;;;;;;13.63;4.87;;;;;;;13.30;100.00;101236.34;4981535;28;20211;-65
2022/10/03 08:10:08;;;;;;;11.73;3.90;;;;;;;13.54;100.00;101230.00;4990504;28;20187;-65
2022/10/03 08:12:47;;;;;;;15.80;4.90;;;;;;;13.47;100.00;101238.97;4956341;28;20228;-64
2022/10/03 08:15:21;;;;;;;14.93;4.50;;;;;;;13.54;100.00;101240.34;4980115;28;20662;-65
2022/10/03 08:18:07;;;;;;;16.37;4.43;;;;;;;13.51;100.00;101248.25;4987135;28;20225;-64
2022/10/03 08:20:41;;;;;;;14.70;5.30;;;;;;;13.74;100.00;101240.28;4985247;28;20226;-65
2022/10/03 08:23:31;;;;;;;13.43;4.13;;;;;;;13.91;100.00;101240.25;4992962;28;20192;-64
2022/10/03 08:26:10;;;;;;;8.33;4.00;;;;;;;14.06;100.00;101235.25;4988886;28;20179;-65
2022/10/03 08:29:13;;;;;;;10.30;4.40;;;;;;;13.96;100.00;101230.50;4992261;28;20195;-64
2022/10/03 08:31:47;;;;;;;17.83;4.77;;;;;;;14.18;100.00;101240.59;4969118;28;20234;-65
2022/10/03 08:34:58;;;;;;;11.47;5.30;;;;;;;14.55;100.00;101237.00;4976540;28;20182;-65
2022/10/03 08:37:50;;;;;;;14.00;4.87;;;;;;;14.49;100.00;101236.41;4989640;28;20252;-65
2022/10/03 08:40:39;;;;;;;11.57;4.70;;;;;;;14.73;100.00;101237.81;4980156;28;20594;-64
2022/10/03 08:43:34;;;;;;;16.67;4.80;;;;;;;14.46;100.00;101236.59;4992465;28;20245;-64
2022/10/03 08:46:27;;;;;;;12.23;5.10;;;;;;;14.63;100.00;101235.69;4992283;28;20222;-65
2022/10/03 08:49:21;;;;;;;11.23;5.07;;;;;;;14.58;100.00;101231.69;4991877;28;20184;-65
2022/10/03 08:52:12;;;;;;;12.60;5.70;;;;;;;14.92;100.00;101237.66;4995884;28;20230;-64
2022/10/03 08:54:56;;;;;;;9.90;5.10;;;;;;;15.36;100.00;101239.53;4987876;28;20207;-64
2022/10/03 08:57:58;;;;;;;12.00;4.63;;;;;;;15.41;100.00;101224.53;4993092;28;20190;-64
2022/10/03 09:00:35;;;;;;;13.60;6.00;;;;;;;15.48;100.00;101233.66;4985714;28;20223;-65
2022/10/03 09:03:09;;;;;;;9.43;4.67;;;;;;;15.27;100.00;101240.03;4997617;28;20227;-64
2022/10/03 09:06:03;;;;;;;15.20;4.90;;;;;;;15.08;100.00;101240.22;4980676;28;20202;-64
2022/10/03 09:08:50;;;;;;;10.33;4.50;;;;;;;14.94;100.00;101241.00;4991489;28;20187;-64
2022/10/03 09:11:29;;;;;;;7.23;4.50;;;;;;;14.68;100.00;101236.28;4974542;28;20226;-64
2022/10/03 09:14:27;;;;;;;11.30;4.90;;;;;;;14.69;100.00;101239.72;4980307;28;20537;-64
2022/10/03 09:17:07;;;;;;;13.13;5.30;;;;;;;14.50;100.00;101240.69;4972762;28;20203;-65
2022/10/03 09:19:45;;;;;;;11.73;6.60;;;;;;;14.43;100.00;101241.09;4991609;28;20507;-64
2022/10/03 09:22:45;;;;;;;10.70;4.97;;;;;;;14.95;100.00;101240.09;4979050;28;20223;-65
2022/10/03 09:25:21;;;;;;;13.63;5.47;;;;;;;15.14;100.00;101232.13;4984171;28;20179;-64
2022/10/03 09:28:17;;;;;;;13.80;5.57;;;;;;;15.62;100.00;101238.03;4988551;28;20183;-64
2022/10/03 09:30:52;;;;;;;17.47;5.23;;;;;;;15.82;100.00;101244.69;4968600;28;20239;-64
2022/10/03 09:33:54;;;;;;;12.60;4.73;;;;;;;16.02;100.00;101236.66;4981841;28;20297;-64
2022/10/03 09:36:59;;;;;;;13.37;4.97;;;;;;;16.20;98.53;101237.31;4989613;28;20202;-64
2022/10/03 09:39:43;;;;;;;8.73;4.13;;;;;;;16.13;98.01;101239.44;4992134;28;20620;-64
2022/10/03 09:42:33;;;;;;;11.97;4.53;;;;;;;15.85;97.53;101241.09;4965762;28;20378;-64
2022/10/03 09:45:21;;;;;;;7.20;4.20;;;;;;;16.29;98.56;101240.19;4986286;28;20742;-65
2022/10/03 09:48:01;;;;;;;10.33;4.37;;;;;;;16.55;96.61;101239.53;4991794;28;20626;-64
2022/10/03 09:50:54;;;;;;;11.67;4.60;;;;;;;16.70;92.43;101242.94;4978073;28;20231;-64
2022/10/03 09:53:42;;;;;;;9.63;4.83;;;;;;;16.86;94.48;101242.81;4977470;28;20266;-65
2022/10/03 09:56:26;;;;;;;11.33;4.67;;;;;;;17.21;90.69;101247.56;4982946;28;20219;-64
2022/10/03 09:59:15;;;;;;;12.63;4.37;;;;;;;16.58;92.83;101236.75;4990438;28;20241;-64
2022/10/03 10:02:10;;;;;;;7.57;4.07;;;;;;;17.00;92.84;101245.41;4978072;28;20223;-64
2022/10/03 10:05:13;;;;;;;9.33;3.60;;;;;;;17.07;88.74;101246.69;4984294;28;20632;-65
2022/10/03 10:08:05;;;;;;;12.93;3.70;;;;;;;17.61;86.56;101237.16;4988258;28;20183;-64
2022/10/03 10:10:45;;;;;;;7.93;3.83;;;;;;;17.99;82.92;101239.00;4974693;28;20665;-65
2022/10/03 10:13:21;;;;;;;8.00;3.13;;;;;;;18.08;80.88;101231.50;4981134;28;20227;-65
2022/10/03 10:16:24;;;;;;;8.87;3.77;;;;;;;18.14;81.80;101237.13;4989328;28;20270;-65
2022/10/03 10:19:01;;;;;;;9.07;3.77;;;;;;;18.45;77.65;101232.38;4988247;28;20729;-66
2022/10/03 10:21:55;;;;;;;12.43;3.90;;;;;;;17.49;80.26;101231.00;4979751;28;20722;-65
2022/10/03 10:24:50;;;;;;;8.80;4.43;;;;;;;17.08;84.18;101234.53;4981726;28;20184;-65
2022/10/03 10:27:34;;;;;;;7.97;3.47;;;;;;;17.57;83.97;101233.09;4993757;28;20211;-65
2022/10/03 10:30:08;;;;;;;9.60;3.50;;;;;;;17.39;79.06;101228.19;4994334;28;20202;-68
2022/10/03 10:32:36;;;;;;;5.07;3.03;;;;;;;17.10;82.57;101233.50;4982731;28;20222;-65
2022/10/03 10:35:33;;;;;;;8.30;3.30;;;;;;;16.66;86.16;101226.72;4992280;28;20327;-65
2022/10/03 10:38:17;;;;;;;6.90;3.90;;;;;;;16.30;87.45;101233.25;4992310;28;20187;-65
2022/10/03 10:41:07;;;;;;;6.20;3.70;;;;;;;16.32;91.12;101226.19;4987080;28;20233;-65
2022/10/03 10:44:10;;;;;;;10.00;4.40;;;;;;;16.47;94.21;101229.59;4993035;28;20219;-66
2022/10/03 10:46:45;;;;;;;8.17;4.10;;;;;;;16.62;91.00;101226.06;4957643;28;1043559;-66
2022/10/03 10:49:44;;;;;;;8.27;3.83;;;;;;;16.92;90.58;101232.09;4993107;28;20281;-66
2022/10/03 10:52:25;;;;;;;7.67;4.00;;;;;;;17.25;90.18;101225.63;4977316;28;20276;-65
2022/10/03 10:55:12;;;;;;;8.13;3.87;;;;;;;17.00;86.33;101222.00;4994710;28;20227;-66
2022/10/03 10:58:29;;;;;;;8.07;3.67;;;;;;;17.51;86.86;101218.72;4991752;28;20274;-65
2022/10/03 11:01:19;;;;;;;9.60;3.87;;;;;;;18.27;72.84;101215.44;4972866;28;20265;-65
2022/10/03 11:04:13;;;;;;;9.93;4.23;;;;;;;18.61;71.87;101213.09;4991198;28;20198;-66
2022/10/03 11:07:26;;;;;;;8.83;3.80;;;;;;;18.49;68.51;101207.81;4994155;28;20187;-65
2022/10/03 11:10:23;;;;;;;8.83;4.07;;;;;;;18.90;67.37;101208.38;4963763;28;20225;-65
2022/10/03 11:13:13;;;;;;;8.37;3.13;;;;;;;19.21;65.30;101210.56;4976531;28;20255;-65
2022/10/03 11:15:46;;;;;;;6.10;3.37;;;;;;;18.88;64.07;101205.06;4975171;28;20222;-65
2022/10/03 11:18:48;;;;;;;8.23;3.43;;;;;;;18.39;60.56;101206.75;4993180;28;20609;-65
2022/10/03 11:21:28;;;;;;;7.83;3.33;;;;;;;18.05;64.42;101216.94;4992763;28;20276;-65
2022/10/03 11:24:22;;;;;;;8.33;3.90;;;;;;;17.51;69.44;101213.50;4985255;28;20542;-65
2022/10/03 11:27:19;;;;;;;8.53;3.37;;;;;;;17.27;71.27;101216.78;4993730;28;20191;-65
2022/10/03 11:29:58;;;;;;;6.13;4.27;;;;;;;17.25;75.87;101216.09;4995018;28;20269;-65
2022/10/03 11:33:01;;;;;;;9.10;4.07;;;;;;;17.33;77.47;101209.53;4962564;28;20230;-65
2022/10/03 11:35:41;;;;;;;6.33;3.63;;;;;;;17.11;75.73;101208.34;4989504;28;20333;-65
2022/10/03 11:38:15;;;;;;;7.33;3.50;;;;;;;17.09;75.06;101208.44;4993400;28;20187;-66
2022/10/03 11:40:58;;;;;;;7.23;3.70;;;;;;;16.53;77.89;101211.03;4981697;28;20231;-65
2022/10/03 11:43:41;;;;;;;7.30;3.90;;;;;;;16.62;78.12;101207.03;4991706;28;20179;-65
2022/10/03 11:46:37;;;;;;;9.17;3.60;;;;;;;16.61;81.17;101210.59;4990252;28;20302;-65
2022/10/03 11:49:42;;;;;;;8.60;4.70;;;;;;;16.34;79.17;101210.53;4993195;28;20191;-65
2022/10/03 11:52:29;;;;;;;7.60;4.37;;;;;;;16.07;84.50;101211.25;4962510;28;20667;-66
2022/10/03 11:55:32;;;;;;;9.03;4.60;;;;;;;15.98;86.56;101218.66;4985117;28;20197;-65
2022/10/03 11:58:14;;;;;;;10.90;4.50;;;;;;;15.64;88.72;101212.00;4966959;28;20180;-65
2022/10/03 12:00:43;;;;;;;9.23;4.23;;;;;;;15.26;92.92;101215.88;4966109;28;20235;-65
2022/10/03 12:03:26;;;;;;;7.80;5.03;;;;;;;14.97;95.92;101213.16;4961797;28;20279;-65
2022/10/03 12:09:05;;;;;;;10.10;4.70;;;;;;;15.16;94.91;101210.38;4968809;28;20639;-65
2022/10/03 12:12:09;;;;;;;10.63;4.40;;;;;;;15.03;92.23;101205.97;4986979;28;20732;-64
2022/10/03 12:14:43;;;;;;;10.40;4.90;;;;;;;14.95;95.70;101206.41;4923046;29;20282;-65
2022/10/03 12:17:14;;;;;;;6.23;4.43;;;;;;;15.00;93.26;101200.03;4907599;29;20228;-64
2022/10/03 12:19:49;;;;;;;7.17;4.53;;;;;;;15.28;91.05;101193.31;4932556;29;20200;-64
2022/10/03 12:22:41;;;;;;;10.00;4.70;;;;;;;15.31;91.14;101184.53;4936533;28;20307;-65
2022/10/03 12:25:18;;;;;;;10.40;4.83;;;;;;;15.75;90.70;101185.44;4924362;29;20198;-65
2022/10/03 12:27:55;;;;;;;6.60;4.63;;;;;;;15.95;92.16;101189.47;4917982;29;20192;-65
2022/10/03 12:30:21;;;;;;;10.70;5.17;;;;;;;15.59;89.64;101181.16;4909801;28;20197;-64
2022/10/03 12:33:06;;;;;;;9.50;4.57;;;;;;;15.78;91.28;101178.31;4946604;28;20227;-64
2022/10/03 12:35:42;;;;;;;10.80;5.03;;;;;;;15.89;91.25;101182.91;4916574;29;20239;-65
2022/10/03 12:38:38;;;;;;;16.07;4.90;;;;;;;15.85;91.48;101176.25;4931896;29;20284;-66
2022/10/03 12:41:23;;;;;;;7.70;4.77;;;;;;;16.20;94.00;101175.84;4904930;29;20312;-65
2022/10/03 12:44:09;;;;;;;10.17;4.47;;;;;;;16.25;91.53;101173.00;4917190;29;20193;-65
2022/10/03 12:46:48;;;;;;;10.13;4.80;;;;;;;16.48;87.52;101170.72;4931379;29;20635;-66
2022/10/03 12:49:19;;;;;;;7.73;4.77;;;;;;;16.73;86.17;101164.81;4964124;28;20246;-65
2022/10/03 12:51:56;;;;;;;7.20;4.30;;;;;;;16.83;84.18;101167.66;4986515;28;20284;-65
2022/10/03 12:54:27;;;;;;;10.53;4.33;;;;;;;16.66;83.42;101169.56;4974915;28;20242;-65